Time;durP1;ratioP1;P1;durP2;ratioP2;P2;SDS_P1;SDS_P2;PMS_P1;PMS_P2;Temp;Humidity;BMP_temperature;BMP_pressure;BME280_temperature;BME280_humidity;BME280_pressure;Samples;Min_cycle;Max_cycle;Signal;HPM_P1;HPM_P2
2024/01/06 00:00:05;;;;;;;1.60;1.30;;;;;;;14.78;53.46;97422.77;105878;1256;64840;-41
2024/01/06 00:02:37;;;;;;;1.30;1.20;;;;;;;14.78;53.41;97422.61;105892;1253;72991;-41
2024/01/06 00:05:05;;;;;;;1.50;1.30;;;;;;;14.78;53.31;97421.54;105810;1264;61229;-41
2024/01/06 00:07:32;;;;;;;1.60;1.50;;;;;;;14.77;53.39;97416.91;105963;1254;61258;-40
2024/01/06 00:09:58;;;;;;;1.20;1.10;;;;;;;14.77;53.42;97409.20;105747;1258;74555;-40
2024/01/06 00:12:25;;;;;;;1.90;1.30;;;;;;;14.78;53.47;97411.30;105824;1256;66104;-40
2024/01/06 00:14:52;;;;;;;1.50;1.40;;;;;;;14.77;53.43;97407.42;105658;1256;72586;-41
2024/01/06 00:17:18;;;;;;;1.50;1.40;;;;;;;14.77;53.39;97403.81;105707;1253;61250;-41
2024/01/06 00:19:50;;;;;;;2.40;1.30;;;;;;;14.77;53.42;97411.42;105770;1256;61143;-39
2024/01/06 00:22:20;;;;;;;1.30;1.20;;;;;;;14.77;53.50;97413.42;105947;1254;74302;-40
2024/01/06 00:24:48;;;;;;;1.70;1.40;;;;;;;14.76;53.59;97420.88;105976;1255;63787;-39
2024/01/06 00:27:16;;;;;;;1.60;1.40;;;;;;;14.77;53.55;97410.10;106013;1254;72608;-41
2024/01/06 00:29:42;;;;;;;1.60;1.50;;;;;;;14.77;53.44;97405.02;105821;1256;61221;-42
2024/01/06 00:32:09;;;;;;;1.40;1.30;;;;;;;14.76;53.55;97403.16;105719;1254;63876;-42
2024/01/06 00:34:35;;;;;;;1.50;1.20;;;;;;;14.76;53.44;97400.77;105880;1256;61344;-40
2024/01/06 00:37:02;;;;;;;1.40;1.30;;;;;;;14.76;53.49;97403.09;105978;1255;66218;-40
2024/01/06 00:39:29;;;;;;;2.00;1.40;;;;;;;14.77;53.50;97400.39;105977;1256;72362;-40
2024/01/06 00:41:56;;;;;;;1.30;1.20;;;;;;;14.76;53.58;97400.69;105778;1255;61210;-40
2024/01/06 00:44:22;;;;;;;1.40;1.30;;;;;;;14.76;53.52;97405.00;105812;1251;61310;-40
2024/01/06 00:46:49;;;;;;;1.40;1.20;;;;;;;14.76;53.57;97403.22;105806;1255;74598;-40
2024/01/06 00:49:15;;;;;;;1.50;1.20;;;;;;;14.76;53.44;97403.00;105666;1256;64981;-40
2024/01/06 00:51:42;;;;;;;1.40;1.20;;;;;;;14.76;53.54;97395.14;106328;1252;72267;-40
2024/01/06 00:54:09;;;;;;;1.40;1.20;;;;;;;14.76;53.49;97390.67;105981;1256;61232;-40
2024/01/06 00:56:36;;;;;;;1.50;1.40;;;;;;;14.75;53.45;97383.94;105667;1256;61237;-40
2024/01/06 00:59:02;;;;;;;1.40;1.30;;;;;;;14.75;53.48;97382.17;105779;1252;74286;-40
2024/01/06 01:01:29;;;;;;;1.60;1.20;;;;;;;14.75;53.37;97384.32;105827;1256;66067;-40
2024/01/06 01:03:56;;;;;;;1.60;1.50;;;;;;;14.75;53.40;97378.55;105971;1252;72486;-39
2024/01/06 01:06:22;;;;;;;1.40;1.10;;;;;;;14.76;53.50;97377.25;105815;1256;61224;-40
2024/01/06 01:08:49;;;;;;;1.80;1.60;;;;;;;14.75;53.38;97377.61;105932;1253;61283;-41
2024/01/06 01:11:16;;;;;;;1.20;1.10;;;;;;;14.75;53.43;97373.60;105889;1256;74445;-39
2024/01/06 01:13:42;;;;;;;1.50;1.30;;;;;;;14.75;53.38;97375.99;106025;1256;66618;-39
2024/01/06 01:16:09;;;;;;;1.40;1.30;;;;;;;14.75;53.39;97374.52;105565;1256;118128;-41
2024/01/06 01:18:36;;;;;;;1.70;1.40;;;;;;;14.75;53.37;97371.00;105689;1255;61452;-41
2024/01/06 01:21:03;;;;;;;2.60;1.30;;;;;;;14.75;53.42;97372.85;105631;1256;61317;-41
2024/01/06 01:23:29;;;;;;;1.40;1.20;;;;;;;14.75;53.41;97371.23;105757;1251;74604;-39
2024/01/06 01:25:56;;;;;;;1.40;1.30;;;;;;;14.75;53.48;97373.92;105809;1255;65279;-40
2024/01/06 01:28:22;;;;;;;4.00;1.60;;;;;;;14.75;53.39;97373.45;105852;1257;72270;-39
2024/01/06 01:30:49;;;;;;;1.30;1.20;;;;;;;14.75;53.16;97365.45;105865;1256;61241;-39
2024/01/06 01:33:16;;;;;;;1.60;1.30;;;;;;;14.75;53.30;97361.12;105939;1256;61225;-40
2024/01/06 01:35:43;;;;;;;1.70;1.30;;;;;;;14.75;53.29;97358.52;105894;1256;74576;-39
2024/01/06 01:38:09;;;;;;;1.40;1.30;;;;;;;14.75;53.28;97356.66;105982;1257;61243;-40
2024/01/06 01:40:36;;;;;;;1.50;1.30;;;;;;;14.75;53.28;97356.52;105862;1257;72707;-41
2024/01/06 01:43:03;;;;;;;1.20;1.10;;;;;;;14.75;53.37;97351.89;105684;1255;61333;-41
2024/01/06 01:45:29;;;;;;;1.50;1.40;;;;;;;14.75;53.36;97345.73;105852;1253;61205;-40
2024/01/06 01:47:56;;;;;;;1.50;1.30;;;;;;;14.76;53.25;97340.42;105954;1254;74577;-40
2024/01/06 01:50:24;;;;;;;1.70;1.40;;;;;;;14.75;53.23;97342.21;105778;1257;66174;-40
2024/01/06 01:52:51;;;;;;;1.30;1.20;;;;;;;14.75;53.28;97342.05;105826;1257;72461;-40
2024/01/06 01:55:18;;;;;;;1.70;1.40;;;;;;;14.76;53.15;97335.36;105664;1259;61318;-40
2024/01/06 01:57:44;;;;;;;1.60;1.50;;;;;;;14.75;53.20;97335.80;105977;1253;61261;-40
2024/01/06 02:00:12;;;;;;;1.50;1.40;;;;;;;14.75;53.16;97336.58;105980;1251;74594;-39
2024/01/06 02:02:39;;;;;;;1.70;1.50;;;;;;;14.75;53.29;97331.17;106020;1251;65420;-40
2024/01/06 02:05:06;;;;;;;1.80;1.70;;;;;;;14.75;53.15;97330.20;105897;1257;72269;-39
2024/01/06 02:07:33;;;;;;;1.40;1.30;;;;;;;14.76;53.18;97321.11;105719;1258;61224;-39
2024/01/06 02:09:59;;;;;;;1.70;1.50;;;;;;;14.76;53.21;97323.11;105745;1251;61289;-40
2024/01/06 02:12:26;;;;;;;1.90;1.30;;;;;;;14.76;53.19;97321.58;105715;1251;74492;-40
2024/01/06 02:14:53;;;;;;;1.80;1.30;;;;;;;14.76;53.19;97321.88;105638;1256;66221;-40
2024/01/06 02:17:19;;;;;;;1.50;1.40;;;;;;;14.76;53.27;97322.67;105576;1256;61279;-40
2024/01/06 02:19:46;;;;;;;1.50;1.40;;;;;;;14.76;53.20;97327.74;105525;1256;61269;-41
2024/01/06 02:22:13;;;;;;;1.60;1.40;;;;;;;14.76;53.06;97319.75;105714;1257;61328;-39
2024/01/06 02:24:39;;;;;;;1.60;1.50;;;;;;;14.76;53.23;97315.05;105617;1257;74821;-39
2024/01/06 02:27:06;;;;;;;1.50;1.40;;;;;;;14.77;53.20;97308.35;105753;1256;64838;-40
2024/01/06 02:29:33;;;;;;;1.40;1.30;;;;;;;14.76;53.21;97302.65;105627;1263;72421;-41
2024/01/06 02:31:59;;;;;;;1.30;1.20;;;;;;;14.77;53.18;97298.42;105583;1259;61343;-39
2024/01/06 02:34:26;;;;;;;1.50;1.40;;;;;;;14.77;53.08;97293.67;105664;1256;61261;-40
2024/01/06 02:36:53;;;;;;;2.50;1.60;;;;;;;14.77;53.15;97289.58;106052;1256;74317;-40
2024/01/06 02:39:20;;;;;;;1.30;1.20;;;;;;;14.77;53.11;97279.01;105900;1258;66220;-40
2024/01/06 02:41:46;;;;;;;1.20;1.10;;;;;;;14.78;53.21;97278.22;106175;1256;72292;-39
2024/01/06 02:44:14;;;;;;;1.40;1.30;;;;;;;14.78;53.04;97283.14;105793;1256;61250;-40
2024/01/06 02:46:40;;;;;;;1.60;1.30;;;;;;;14.78;53.11;97286.77;106404;1256;61183;-40
2024/01/06 02:49:08;;;;;;;1.70;1.40;;;;;;;14.78;53.18;97279.75;106006;1257;74475;-39
2024/01/06 02:51:35;;;;;;;1.40;1.30;;;;;;;14.78;53.01;97275.45;105928;1257;64870;-40
2024/01/06 02:54:02;;;;;;;1.50;1.40;;;;;;;14.78;53.12;97272.83;105660;1256;72570;-41
2024/01/06 02:56:28;;;;;;;1.20;1.10;;;;;;;14.78;53.05;97273.30;105874;1265;61324;-39
2024/01/06 02:58:55;;;;;;;1.90;1.40;;;;;;;14.79;53.12;97270.69;105811;1255;61291;-41
2024/01/06 03:01:21;;;;;;;1.80;1.30;;;;;;;14.79;53.10;97272.39;105825;1258;61263;-41
2024/01/06 03:03:48;;;;;;;1.90;1.50;;;;;;;14.79;53.12;97273.23;105856;1264;64768;-39
2024/01/06 03:06:15;;;;;;;1.60;1.50;;;;;;;14.79;52.98;97275.55;105951;1257;72854;-39
2024/01/06 03:08:41;;;;;;;1.50;1.40;;;;;;;14.79;53.02;97277.02;105874;1256;61279;-41
2024/01/06 03:11:08;;;;;;;1.30;1.20;;;;;;;14.79;53.10;97276.33;105778;1255;61310;-40
2024/01/06 03:13:35;;;;;;;1.40;1.30;;;;;;;14.80;53.21;97275.66;105934;1257;74683;-40
2024/01/06 03:16:05;;;;;;;1.40;1.30;;;;;;;14.80;53.08;97274.80;105977;1256;65907;-40
2024/01/06 03:18:31;;;;;;;1.90;1.40;;;;;;;14.80;53.00;97274.89;105948;1256;73599;-40
2024/01/06 03:20:58;;;;;;;1.20;1.10;;;;;;;14.80;53.01;97268.27;105929;1256;61227;-40
2024/01/06 03:23:25;;;;;;;1.50;1.20;;;;;;;14.80;52.98;97264.58;105905;1254;61374;-39
2024/01/06 03:25:52;;;;;;;2.00;1.10;;;;;;;14.80;53.09;97266.05;105938;1257;74395;-40
2024/01/06 03:28:18;;;;;;;1.70;1.20;;;;;;;14.81;53.06;97280.09;105941;1256;65501;-40
2024/01/06 03:30:45;;;;;;;1.80;1.10;;;;;;;14.81;53.12;97273.67;105848;1251;72555;-39
2024/01/06 03:33:12;;;;;;;3.60;1.30;;;;;;;14.81;52.89;97272.17;105928;1264;61219;-40
2024/01/06 03:35:39;;;;;;;1.30;1.20;;;;;;;14.81;53.09;97271.93;105606;1256;62009;-40
2024/01/06 03:38:05;;;;;;;2.00;1.30;;;;;;;14.81;53.09;97274.26;105626;1251;74561;-40
2024/01/06 03:40:32;;;;;;;1.40;1.30;;;;;;;14.81;53.04;97272.65;105803;1257;66029;-40
2024/01/06 03:43:00;;;;;;;1.50;1.30;;;;;;;14.81;53.07;97265.23;105742;1251;72387;-40
2024/01/06 03:45:26;;;;;;;1.70;1.20;;;;;;;14.82;53.12;97268.41;105614;1264;61692;-40
2024/01/06 03:47:53;;;;;;;2.80;1.50;;;;;;;14.82;53.10;97268.95;105639;1251;61333;-40
2024/01/06 03:50:20;;;;;;;1.20;1.10;;;;;;;14.82;52.99;97273.64;105842;1255;74411;-40
2024/01/06 03:52:48;;;;;;;1.30;1.20;;;;;;;14.82;52.97;97273.65;105881;1255;66110;-40
2024/01/06 03:55:16;;;;;;;1.40;1.20;;;;;;;14.83;53.02;97273.59;105848;1257;72646;-40
2024/01/06 03:57:42;;;;;;;1.40;1.30;;;;;;;14.83;52.98;97277.14;105875;1257;61335;-40
2024/01/06 04:00:10;;;;;;;1.70;1.30;;;;;;;14.83;53.06;97275.90;105839;1255;61142;-39
2024/01/06 04:02:36;;;;;;;1.60;1.50;;;;;;;14.83;53.03;97274.14;105865;1251;74829;-40
2024/01/06 04:05:05;;;;;;;1.30;1.20;;;;;;;14.83;53.04;97263.13;105946;1257;64863;-40
2024/01/06 04:07:31;;;;;;;1.80;1.40;;;;;;;14.83;52.98;97265.69;105813;1254;71269;-40
2024/01/06 04:09:58;;;;;;;1.50;1.40;;;;;;;14.84;52.96;97264.07;105937;1257;61244;-40
2024/01/06 04:12:24;;;;;;;1.30;1.20;;;;;;;14.85;53.08;97268.34;105770;1257;61313;-41
2024/01/06 04:14:51;;;;;;;1.20;1.10;;;;;;;14.83;53.01;97267.21;105682;1255;74617;-40
2024/01/06 04:17:18;;;;;;;1.60;1.40;;;;;;;14.84;53.07;97267.64;105632;1264;65013;-40
2024/01/06 04:19:45;;;;;;;1.20;1.10;;;;;;;14.84;53.07;97263.39;105809;1251;72593;-40
2024/01/06 04:22:11;;;;;;;1.40;1.30;;;;;;;14.84;52.92;97263.39;105735;1257;61188;-40
2024/01/06 04:24:38;;;;;;;1.70;1.20;;;;;;;14.84;52.97;97258.25;105900;1254;61336;-40
2024/01/06 04:27:05;;;;;;;1.20;1.10;;;;;;;14.84;52.95;97260.25;105895;1257;74384;-40
2024/01/06 04:29:31;;;;;;;1.50;1.40;;;;;;;14.85;53.01;97264.27;105887;1258;66292;-40
2024/01/06 04:31:58;;;;;;;1.20;1.10;;;;;;;14.84;53.08;97266.02;105920;1257;61688;-40
2024/01/06 04:34:25;;;;;;;1.60;1.10;;;;;;;14.85;53.06;97260.82;105929;1251;61282;-40
2024/01/06 04:36:51;;;;;;;1.80;1.40;;;;;;;14.85;53.04;97256.52;106109;1256;61239;-39
2024/01/06 04:39:18;;;;;;;1.40;1.30;;;;;;;14.85;53.03;97254.73;105891;1256;74450;-39
2024/01/06 04:41:45;;;;;;;1.50;1.20;;;;;;;14.85;53.05;97249.96;105584;1256;65826;-41
2024/01/06 04:44:11;;;;;;;2.10;1.40;;;;;;;14.86;52.96;97245.42;105641;1256;72811;-42
2024/01/06 04:46:38;;;;;;;1.50;1.40;;;;;;;14.85;53.02;97243.86;105703;1256;61176;-39
2024/01/06 04:49:05;;;;;;;1.30;1.20;;;;;;;14.86;52.94;97242.20;105941;1255;61273;-40
2024/01/06 04:51:31;;;;;;;1.40;1.20;;;;;;;14.86;52.92;97239.52;105914;1251;74604;-40
2024/01/06 04:53:58;;;;;;;1.50;1.40;;;;;;;14.86;53.01;97240.34;105909;1256;66136;-40
2024/01/06 04:56:25;;;;;;;1.50;1.30;;;;;;;14.86;53.00;97244.43;105899;1254;72499;-40
2024/01/06 04:58:51;;;;;;;1.70;1.40;;;;;;;14.86;53.03;97243.98;105692;1257;61203;-40
2024/01/06 05:01:18;;;;;;;1.40;1.30;;;;;;;14.86;52.93;97241.83;105604;1254;61343;-40
2024/01/06 05:03:45;;;;;;;1.40;1.20;;;;;;;14.87;53.09;97248.39;105871;1251;74256;-40
2024/01/06 05:06:12;;;;;;;1.10;1.00;;;;;;;14.87;52.98;97247.47;105875;1256;66069;-40
2024/01/06 05:08:44;;;;;;;2.00;1.50;;;;;;;14.87;53.00;97244.71;105839;1251;72503;-40
2024/01/06 05:11:11;;;;;;;1.40;1.30;;;;;;;14.86;52.94;97241.98;105918;1256;61295;-40
2024/01/06 05:13:38;;;;;;;1.40;1.30;;;;;;;14.87;52.96;97235.55;105930;1251;61282;-40
2024/01/06 05:16:05;;;;;;;1.60;1.40;;;;;;;14.87;53.05;97239.10;105912;1257;61359;-40
2024/01/06 05:18:32;;;;;;;1.50;1.40;;;;;;;14.87;53.04;97239.86;105768;1257;65704;-40
2024/01/06 05:20:59;;;;;;;1.70;1.40;;;;;;;14.88;52.97;97244.65;105685;1251;72413;-40
2024/01/06 05:23:25;;;;;;;3.10;1.30;;;;;;;14.88;52.86;97246.42;105992;1257;61822;-40
2024/01/06 05:25:52;;;;;;;1.40;1.30;;;;;;;14.89;53.00;97249.77;105877;1251;61202;-40
2024/01/06 05:28:19;;;;;;;1.60;1.20;;;;;;;14.88;52.84;97250.38;106043;1254;73339;-39
2024/01/06 05:30:45;;;;;;;1.40;1.30;;;;;;;14.88;52.93;97250.36;105625;1256;66232;-40
2024/01/06 05:33:13;;;;;;;1.40;1.30;;;;;;;14.88;52.97;97258.00;105628;1251;72289;-40
2024/01/06 05:35:41;;;;;;;1.80;1.20;;;;;;;14.88;52.97;97255.23;105745;1251;61247;-40
2024/01/06 05:38:08;;;;;;;1.90;1.40;;;;;;;14.88;53.00;97251.68;105817;1251;61253;-40
2024/01/06 05:40:34;;;;;;;1.40;1.30;;;;;;;14.89;52.89;97257.48;105597;1251;74547;-40
2024/01/06 05:43:01;;;;;;;1.80;1.40;;;;;;;14.89;52.93;97249.91;105857;1257;66149;-40
2024/01/06 05:45:28;;;;;;;1.80;1.30;;;;;;;14.89;52.93;97244.54;105893;1251;71541;-40
2024/01/06 05:47:57;;;;;;;1.90;1.30;;;;;;;14.89;52.95;97247.09;105970;1251;61291;-40
2024/01/06 05:50:24;;;;;;;1.50;1.40;;;;;;;14.89;53.05;97249.69;105815;1251;61350;-40
2024/01/06 05:52:51;;;;;;;2.00;1.40;;;;;;;14.89;52.93;97249.00;105837;1256;74662;-41
2024/01/06 05:55:19;;;;;;;1.20;1.10;;;;;;;14.89;52.92;97251.47;105644;1257;65081;-41
2024/01/06 05:57:45;;;;;;;1.70;1.40;;;;;;;14.90;52.96;97252.11;105699;1252;72357;-41
2024/01/06 06:00:13;;;;;;;1.50;1.30;;;;;;;14.90;53.02;97249.88;105846;1257;61228;-40
2024/01/06 06:02:40;;;;;;;1.50;1.40;;;;;;;14.90;52.91;97245.34;105817;1266;61165;-40
2024/01/06 06:05:07;;;;;;;1.60;1.40;;;;;;;14.90;52.95;97241.04;105827;1256;74509;-40
2024/01/06 06:07:38;;;;;;;1.50;1.30;;;;;;;14.91;52.96;97237.83;105861;1257;66058;-40
2024/01/06 06:10:09;;;;;;;1.40;1.30;;;;;;;14.91;52.92;97245.21;105933;1251;71489;-40
2024/01/06 06:12:36;;;;;;;1.70;1.40;;;;;;;14.90;53.02;97244.89;105802;1251;61158;-40
2024/01/06 06:15:04;;;;;;;1.80;1.40;;;;;;;14.91;52.97;97244.60;105662;1251;61195;-40
2024/01/06 06:17:31;;;;;;;1.50;1.30;;;;;;;14.91;52.92;97240.35;105908;1251;75020;-40
2024/01/06 06:19:58;;;;;;;1.30;1.10;;;;;;;14.91;52.89;97237.27;105772;1256;65915;-40
2024/01/06 06:22:30;;;;;;;1.50;1.30;;;;;;;14.91;52.90;97233.44;105685;1251;72688;-40
2024/01/06 06:24:57;;;;;;;1.40;1.30;;;;;;;14.91;53.01;97224.65;105927;1257;61228;-40
2024/01/06 06:27:24;;;;;;;1.10;1.00;;;;;;;14.91;52.88;97218.24;105970;1251;61331;-40
2024/01/06 06:29:51;;;;;;;1.80;1.30;;;;;;;14.91;52.87;97220.39;105891;1256;74464;-40
2024/01/06 06:32:18;;;;;;;1.50;1.30;;;;;;;14.92;52.83;97222.20;105867;1251;65714;-40
2024/01/06 06:34:45;;;;;;;1.70;1.20;;;;;;;14.92;52.89;97233.84;105904;1251;72423;-40
2024/01/06 06:37:11;;;;;;;1.30;1.20;;;;;;;14.91;52.78;97238.77;105833;1256;61247;-40
2024/01/06 06:39:38;;;;;;;1.60;1.40;;;;;;;14.92;52.90;97241.70;105678;1251;61244;-40
2024/01/06 06:42:04;;;;;;;1.60;1.40;;;;;;;14.92;52.89;97243.17;105793;1251;75042;-40
2024/01/06 06:44:31;;;;;;;1.30;1.20;;;;;;;14.91;52.85;97243.39;105871;1257;65894;-40
2024/01/06 06:46:58;;;;;;;1.90;1.30;;;;;;;14.92;52.78;97247.73;105892;1251;72651;-40
2024/01/06 06:49:24;;;;;;;2.20;1.50;;;;;;;14.92;52.82;97244.34;105947;1251;61255;-40
2024/01/06 06:51:51;;;;;;;1.50;1.40;;;;;;;14.93;52.98;97247.29;106155;1251;61119;-39
2024/01/06 06:54:18;;;;;;;1.40;1.30;;;;;;;14.93;52.81;97247.75;105927;1251;74550;-40
2024/01/06 06:56:44;;;;;;;1.50;1.40;;;;;;;14.93;52.97;97249.67;105635;1256;66013;-41
2024/01/06 06:59:11;;;;;;;1.70;1.30;;;;;;;14.93;52.92;97249.68;105781;1252;72561;-39
2024/01/06 07:01:38;;;;;;;1.80;1.50;;;;;;;14.93;52.83;97253.75;106367;1256;61356;-40
2024/01/06 07:04:04;;;;;;;1.20;1.10;;;;;;;14.93;52.84;97254.84;105673;1251;61321;-41
2024/01/06 07:06:31;;;;;;;1.50;1.40;;;;;;;14.94;52.78;97258.55;105600;1256;74466;-41
2024/01/06 07:08:58;;;;;;;1.50;1.40;;;;;;;14.93;52.82;97260.92;105369;1260;64831;-40
2024/01/06 07:11:25;;;;;;;2.30;1.70;;;;;;;14.93;52.74;97265.40;105591;1251;72473;-40
2024/01/06 07:13:52;;;;;;;2.30;1.60;;;;;;;14.94;52.81;97259.48;105625;1256;61256;-40
2024/01/06 07:16:18;;;;;;;1.50;1.40;;;;;;;14.93;52.79;97255.54;105587;1254;61262;-40
2024/01/06 07:18:46;;;;;;;1.50;1.40;;;;;;;14.93;52.82;97249.61;105685;1256;74494;-39
2024/01/06 07:21:13;;;;;;;1.70;1.50;;;;;;;14.94;52.80;97244.47;105779;1255;64924;-40
2024/01/06 07:23:40;;;;;;;2.40;1.60;;;;;;;14.94;52.83;97247.77;105690;1256;72576;-40
2024/01/06 07:26:08;;;;;;;1.60;1.30;;;;;;;14.94;52.75;97246.63;105662;1257;61343;-40
2024/01/06 07:28:34;;;;;;;1.50;1.40;;;;;;;14.94;52.81;97250.23;105991;1256;61371;-40
2024/01/06 07:31:01;;;;;;;1.50;1.30;;;;;;;14.94;52.78;97249.58;105894;1251;74586;-40
2024/01/06 07:33:28;;;;;;;1.50;1.40;;;;;;;14.94;52.83;97252.94;105832;1256;65599;-40
2024/01/06 07:35:55;;;;;;;1.60;1.50;;;;;;;14.95;52.75;97250.27;105884;1251;72369;-40
2024/01/06 07:38:21;;;;;;;2.20;1.60;;;;;;;14.94;52.78;97244.02;105680;1258;61253;-40
2024/01/06 07:40:48;;;;;;;1.80;1.50;;;;;;;14.94;52.78;97245.11;105629;1251;61237;-40
2024/01/06 07:43:15;;;;;;;1.50;1.40;;;;;;;14.95;52.72;97243.05;105697;1258;74574;-40
2024/01/06 07:45:41;;;;;;;2.20;1.80;;;;;;;14.95;52.75;97241.48;105627;1257;65841;-40
2024/01/06 07:48:08;;;;;;;1.60;1.40;;;;;;;14.94;52.72;97240.31;105804;1251;72605;-39
2024/01/06 07:50:35;;;;;;;2.40;1.40;;;;;;;14.94;52.71;97241.71;105777;1251;61813;-40
2024/01/06 07:53:02;;;;;;;1.70;1.50;;;;;;;14.95;52.74;97238.72;105816;1251;61310;-40
2024/01/06 07:55:28;;;;;;;2.30;1.80;;;;;;;14.94;52.68;97243.87;105762;1256;74439;-39
2024/01/06 07:57:55;;;;;;;1.60;1.50;;;;;;;14.94;52.68;97240.86;105709;1251;66054;-39
2024/01/06 08:00:22;;;;;;;1.50;1.40;;;;;;;14.94;52.70;97241.48;105722;1251;72252;-40
2024/01/06 08:02:48;;;;;;;1.50;1.40;;;;;;;14.94;52.67;97248.69;105877;1257;61229;-39
2024/01/06 08:05:15;;;;;;;2.20;1.70;;;;;;;14.94;52.65;97253.55;105924;1251;61182;-40
2024/01/06 08:07:42;;;;;;;2.00;1.50;;;;;;;14.94;52.72;97260.33;105795;1255;74463;-40
2024/01/06 08:10:08;;;;;;;1.80;1.50;;;;;;;14.93;52.67;97265.09;105743;1257;66126;-39
2024/01/06 08:12:35;;;;;;;1.60;1.50;;;;;;;14.93;52.72;97271.48;105727;1254;72557;-40
2024/01/06 08:15:02;;;;;;;2.10;1.60;;;;;;;14.93;52.71;97275.40;105619;1256;61224;-40
2024/01/06 08:17:29;;;;;;;3.50;1.70;;;;;;;14.93;52.76;97279.94;105719;1256;61311;-40
2024/01/06 08:19:55;;;;;;;2.00;1.50;;;;;;;14.93;52.71;97283.95;105603;1251;74341;-40
2024/01/06 08:22:22;;;;;;;1.70;1.30;;;;;;;14.93;52.72;97285.02;105622;1255;65903;-41
2024/01/06 08:24:48;;;;;;;2.90;1.70;;;;;;;14.92;52.73;97290.40;105815;1251;72395;-40
2024/01/06 08:27:15;;;;;;;1.60;1.50;;;;;;;14.92;52.64;97296.70;105944;1256;61330;-40
2024/01/06 08:29:42;;;;;;;1.70;1.60;;;;;;;14.91;52.72;97298.98;105935;1251;61231;-40
2024/01/06 08:32:10;;;;;;;2.50;1.70;;;;;;;14.92;52.79;97296.61;105993;1251;74367;-40
2024/01/06 08:34:36;;;;;;;1.90;1.50;;;;;;;14.91;52.71;97291.51;106010;1256;64968;-40
2024/01/06 08:37:03;;;;;;;1.50;1.40;;;;;;;14.91;52.73;97293.98;105930;1251;72400;-40
2024/01/06 08:39:30;;;;;;;2.00;1.60;;;;;;;14.90;52.78;97297.73;105944;1251;61432;-40
2024/01/06 08:41:57;;;;;;;2.20;1.80;;;;;;;14.90;52.73;97300.83;105825;1251;61241;-40
2024/01/06 08:44:27;;;;;;;1.90;1.70;;;;;;;14.90;52.73;97302.34;105591;1256;74570;-40
2024/01/06 08:46:54;;;;;;;2.10;1.80;;;;;;;14.90;52.80;97303.11;105598;1256;66073;-40
2024/01/06 08:49:22;;;;;;;2.80;1.50;;;;;;;14.90;52.81;97296.96;105772;1251;72713;-40
2024/01/06 08:51:49;;;;;;;2.30;1.80;;;;;;;14.90;52.67;97293.24;105996;1256;61561;-40
2024/01/06 08:54:16;;;;;;;1.80;1.60;;;;;;;14.89;52.73;97286.59;105968;1256;61296;-40
2024/01/06 08:56:42;;;;;;;1.60;1.50;;;;;;;14.89;52.64;97284.27;106347;1253;74583;-40
2024/01/06 08:59:09;;;;;;;1.70;1.60;;;;;;;14.89;52.76;97279.96;105738;1256;66069;-40
2024/01/06 09:01:37;;;;;;;2.00;1.70;;;;;;;14.89;52.75;97281.58;105552;1251;72525;-40
2024/01/06 09:04:04;;;;;;;1.90;1.60;;;;;;;14.88;52.68;97273.64;105732;1256;63817;-40
2024/01/06 09:06:31;;;;;;;1.90;1.60;;;;;;;14.88;52.60;97274.33;105608;1251;61242;-40
2024/01/06 09:08:58;;;;;;;2.80;1.90;;;;;;;14.88;52.78;97277.88;105780;1252;75590;-40
2024/01/06 09:11:24;;;;;;;2.50;1.80;;;;;;;14.88;52.63;97275.64;105618;1255;65293;-40
2024/01/06 09:13:52;;;;;;;2.30;1.90;;;;;;;14.88;52.85;97281.25;105696;1252;72464;-40
2024/01/06 09:16:19;;;;;;;2.20;1.80;;;;;;;14.88;52.70;97274.79;105559;1255;61273;-40
2024/01/06 09:18:46;;;;;;;2.10;1.80;;;;;;;14.88;52.67;97270.78;105696;1251;61881;-40
2024/01/06 09:21:13;;;;;;;2.00;1.80;;;;;;;14.88;52.72;97264.76;105711;1251;74323;-40
2024/01/06 09:23:39;;;;;;;1.80;1.70;;;;;;;14.87;52.63;97259.75;105734;1256;65060;-40
2024/01/06 09:26:06;;;;;;;2.50;1.80;;;;;;;14.87;52.67;97265.36;105559;1251;73386;-41
2024/01/06 09:28:33;;;;;;;1.70;1.60;;;;;;;14.87;52.63;97263.05;105661;1256;61347;-41
2024/01/06 09:30:59;;;;;;;1.70;1.60;;;;;;;14.87;52.72;97265.36;105841;1251;61247;-41
2024/01/06 09:33:26;;;;;;;2.20;1.90;;;;;;;14.87;52.70;97271.42;105886;1252;74577;-39
2024/01/06 09:35:53;;;;;;;2.30;1.90;;;;;;;14.87;52.70;97278.36;105747;1256;66291;-40
2024/01/06 09:38:20;;;;;;;1.60;1.50;;;;;;;14.87;52.74;97282.14;105861;1251;72560;-40
2024/01/06 09:40:47;;;;;;;2.20;1.80;;;;;;;14.87;52.79;97287.15;105914;1257;61241;-40
2024/01/06 09:43:15;;;;;;;1.90;1.60;;;;;;;14.87;52.80;97291.08;105700;1251;61196;-39
2024/01/06 09:45:41;;;;;;;1.80;1.60;;;;;;;14.88;52.83;97302.35;105935;1257;74284;-40
2024/01/06 09:48:15;;;;;;;1.90;1.70;;;;;;;14.87;52.75;97301.70;105502;1257;64886;-40
2024/01/06 09:50:42;;;;;;;2.90;1.90;;;;;;;14.87;52.74;97297.61;105683;1256;71153;-40
2024/01/06 09:53:12;;;;;;;2.30;1.90;;;;;;;14.87;52.64;97287.98;105712;1256;61216;-40
2024/01/06 09:55:39;;;;;;;2.00;1.80;;;;;;;14.87;52.65;97281.89;105642;1252;61377;-40
2024/01/06 09:58:08;;;;;;;2.20;1.90;;;;;;;14.87;52.60;97275.80;105911;1253;74575;-40
2024/01/06 10:00:35;;;;;;;1.80;1.60;;;;;;;14.86;52.63;97262.23;105790;1256;67133;-41
2024/01/06 10:03:02;;;;;;;1.60;1.50;;;;;;;14.86;52.75;97256.98;105469;1251;72603;-40
2024/01/06 10:05:30;;;;;;;2.40;2.00;;;;;;;14.86;52.63;97254.91;105715;1256;61245;-40
2024/01/06 10:07:57;;;;;;;1.90;1.60;;;;;;;14.86;52.68;97254.91;105649;1251;61234;-40
2024/01/06 10:10:24;;;;;;;2.60;1.70;;;;;;;14.86;52.63;97250.52;105709;1256;74473;-40
2024/01/06 10:12:52;;;;;;;2.10;1.90;;;;;;;14.86;52.63;97252.36;105736;1256;65267;-40
2024/01/06 10:15:19;;;;;;;3.40;2.00;;;;;;;14.86;52.58;97256.14;105631;1256;71352;-40
2024/01/06 10:17:46;;;;;;;1.60;1.50;;;;;;;14.86;52.55;97252.28;105598;1256;61299;-40
2024/01/06 10:20:13;;;;;;;2.20;2.00;;;;;;;14.86;52.65;97259.23;105897;1251;61308;-40
2024/01/06 10:22:41;;;;;;;2.70;2.10;;;;;;;14.86;52.65;97261.30;105924;1253;75386;-40
2024/01/06 10:25:08;;;;;;;2.90;1.90;;;;;;;14.86;52.55;97258.37;105902;1256;65870;-39
2024/01/06 10:27:36;;;;;;;2.10;1.80;;;;;;;14.86;52.60;97261.69;105963;1256;72295;-40
2024/01/06 10:30:03;;;;;;;1.90;1.60;;;;;;;14.86;52.53;97264.53;105824;1253;63727;-40
2024/01/06 10:32:31;;;;;;;2.40;1.70;;;;;;;14.85;52.57;97267.89;105685;1255;61208;-40
2024/01/06 10:35:00;;;;;;;2.50;1.80;;;;;;;14.85;52.56;97266.88;105722;1256;75239;-40
2024/01/06 10:37:28;;;;;;;1.90;1.60;;;;;;;14.84;52.68;97265.48;105796;1256;64822;-40
2024/01/06 10:40:15;;;;;;;2.30;1.90;;;;;;;14.84;52.66;97263.11;105933;1251;72384;-40
2024/01/06 10:42:42;;;;;;;2.20;1.70;;;;;;;14.84;52.58;97265.55;105969;1251;61227;-40
2024/01/06 10:45:10;;;;;;;3.00;1.90;;;;;;;14.83;52.61;97253.29;105939;1251;61126;-39
2024/01/06 10:47:37;;;;;;;1.90;1.60;;;;;;;14.83;52.55;97257.06;105888;1256;74412;-39
2024/01/06 10:50:05;;;;;;;1.80;1.60;;;;;;;14.83;52.57;97252.73;105828;1253;66037;-40
2024/01/06 10:52:32;;;;;;;2.10;1.90;;;;;;;14.83;52.47;97251.57;105827;1251;72562;-39
2024/01/06 10:54:59;;;;;;;2.30;1.60;;;;;;;14.83;52.63;97246.88;105810;1255;61274;-40
2024/01/06 10:57:27;;;;;;;2.50;1.90;;;;;;;14.83;52.61;97244.10;105635;1251;61198;-40
2024/01/06 10:59:54;;;;;;;2.60;1.90;;;;;;;14.84;52.52;97245.13;105624;1252;74413;-40
2024/01/06 11:02:21;;;;;;;2.00;1.70;;;;;;;14.83;52.56;97242.10;105583;1257;65124;-41
2024/01/06 11:04:48;;;;;;;2.00;1.80;;;;;;;14.83;52.65;97240.58;105662;1252;72301;-41
2024/01/06 11:07:16;;;;;;;2.30;1.90;;;;;;;14.82;52.54;97240.02;105767;1256;61312;-40
2024/01/06 11:09:58;;;;;;;2.60;2.00;;;;;;;14.83;52.55;97238.20;105642;1251;61322;-39
2024/01/06 11:12:27;;;;;;;2.30;1.80;;;;;;;14.82;52.57;97231.92;105715;1256;74568;-40
2024/01/06 11:14:54;;;;;;;2.00;1.80;;;;;;;14.82;52.58;97233.77;105860;1253;67232;-39
2024/01/06 11:17:53;;;;;;;2.50;2.00;;;;;;;14.82;52.69;97227.52;105853;1255;73437;-39
2024/01/06 11:20:24;;;;;;;2.00;1.80;;;;;;;14.82;52.57;97223.37;105961;1254;61266;-39
2024/01/06 11:22:51;;;;;;;2.50;2.10;;;;;;;14.81;52.61;97225.55;105829;1251;61283;-40